sensor_id;sensor_type;location;lat;lon;timestamp;pressure;altitude;pressure_sealevel;temperature;humidity
52693;BME280;68218;51.012;-1.648;2023-04-19T00:02:19;101551.63;;;6.91;78.48
52693;BME280;68218;51.012;-1.648;2023-04-19T00:04:44;101541.13;;;6.90;78.72
52693;BME280;68218;51.012;-1.648;2023-04-19T00:07:11;101534.31;;;6.94;78.81
52693;BME280;68218;51.012;-1.648;2023-04-19T00:09:37;101544.63;;;6.97;78.81
52693;BME280;68218;51.012;-1.648;2023-04-19T00:12:03;101544.41;;;6.99;78.68
52693;BME280;68218;51.012;-1.648;2023-04-19T00:14:28;101534.53;;;6.99;79.10
52693;BME280;68218;51.012;-1.648;2023-04-19T00:16:53;101528.13;;;6.93;79.47
52693;BME280;68218;51.012;-1.648;2023-04-19T00:19:19;101533.88;;;7.04;79.29
52693;BME280;68218;51.012;-1.648;2023-04-19T00:21:46;101534.31;;;6.94;79.65
52693;BME280;68218;51.012;-1.648;2023-04-19T00:24:12;101528.13;;;6.93;79.60
52693;BME280;68218;51.012;-1.648;2023-04-19T00:26:37;101527.50;;;6.91;79.82
52693;BME280;68218;51.012;-1.648;2023-04-19T00:29:03;101525.03;;;6.90;80.48
52693;BME280;68218;51.012;-1.648;2023-04-19T00:31:28;101521.72;;;6.94;80.43
52693;BME280;68218;51.012;-1.648;2023-04-19T00:33:53;101525.03;;;6.90;80.89
52693;BME280;68218;51.012;-1.648;2023-04-19T00:36:19;101522.56;;;6.95;80.91
52693;BME280;68218;51.012;-1.648;2023-04-19T00:38:44;101527.09;;;6.94;81.36
52693;BME280;68218;51.012;-1.648;2023-04-19T00:41:09;101519.66;;;6.97;81.52
52693;BME280;68218;51.012;-1.648;2023-04-19T00:43:35;101524.81;;;6.98;81.62
52693;BME280;68218;51.012;-1.648;2023-04-19T00:46:01;101512.22;;;6.99;82.33
52693;BME280;68218;51.012;-1.648;2023-04-19T00:48:26;101511.00;;;7.08;82.38
52693;BME280;68218;51.012;-1.648;2023-04-19T00:50:52;101504.19;;;7.12;82.54
52693;BME280;68218;51.012;-1.648;2023-04-19T00:53:17;101505.84;;;7.13;82.84
52693;BME280;68218;51.012;-1.648;2023-04-19T00:55:43;101494.06;;;7.14;83.20
52693;BME280;68218;51.012;-1.648;2023-04-19T00:58:08;101502.09;;;7.21;82.91
52693;BME280;68218;51.012;-1.648;2023-04-19T01:00:35;101500.44;;;7.26;82.75
52693;BME280;68218;51.012;-1.648;2023-04-19T01:03:01;101495.06;;;7.26;83.20
52693;BME280;68218;51.012;-1.648;2023-04-19T01:05:26;101495.50;;;7.23;83.22
52693;BME280;68218;51.012;-1.648;2023-04-19T01:07:51;101491.38;;;7.21;83.27
52693;BME280;68218;51.012;-1.648;2023-04-19T01:10:17;101486.81;;;7.21;83.68
52693;BME280;68218;51.012;-1.648;2023-04-19T01:12:42;101487.25;;;7.18;83.72
52693;BME280;68218;51.012;-1.648;2023-04-19T01:15:08;101479.41;;;7.17;84.09
52693;BME280;68218;51.012;-1.648;2023-04-19T01:17:33;101469.91;;;7.14;84.37
52693;BME280;68218;51.012;-1.648;2023-04-19T01:20:02;101473.41;;;7.21;84.40
52693;BME280;68218;51.012;-1.648;2023-04-19T01:22:30;101471.38;;;7.23;84.45
52693;BME280;68218;51.012;-1.648;2023-04-19T01:24:56;101472.78;;;7.26;84.62
52693;BME280;68218;51.012;-1.648;2023-04-19T01:27:21;101469.91;;;7.27;84.77
52693;BME280;68218;51.012;-1.648;2023-04-19T01:29:48;101469.06;;;7.34;84.64
52693;BME280;68218;51.012;-1.648;2023-04-19T01:32:13;101476.25;;;7.40;84.79
52693;BME280;68218;51.012;-1.648;2023-04-19T01:34:38;101459.13;;;7.41;84.66
52693;BME280;68218;51.012;-1.648;2023-04-19T01:37:04;101463.22;;;7.50;84.73
52693;BME280;68218;51.012;-1.648;2023-04-19T01:39:29;101467.97;;;7.55;84.84
52693;BME280;68218;51.012;-1.648;2023-04-19T01:41:55;101458.66;;;7.57;84.79
52693;BME280;68218;51.012;-1.648;2023-04-19T01:44:20;101457.84;;;7.57;84.94
52693;BME280;68218;51.012;-1.648;2023-04-19T01:46:46;101464.00;;;7.57;85.12
52693;BME280;68218;51.012;-1.648;2023-04-19T01:49:12;101452.44;;;7.63;85.05
52693;BME280;68218;51.012;-1.648;2023-04-19T01:51:37;101449.38;;;7.60;85.23
52693;BME280;68218;51.012;-1.648;2023-04-19T01:54:03;101457.41;;;7.66;85.07
52693;BME280;68218;51.012;-1.648;2023-04-19T01:56:28;101450.75;;;7.69;85.22
52693;BME280;68218;51.012;-1.648;2023-04-19T01:58:54;101444.38;;;7.63;85.54
52693;BME280;68218;51.012;-1.648;2023-04-19T02:01:20;101443.97;;;7.66;85.57
52693;BME280;68218;51.012;-1.648;2023-04-19T02:03:45;101445.84;;;7.66;85.83
52693;BME280;68218;51.012;-1.648;2023-04-19T02:06:11;101436.34;;;7.63;85.85
52693;BME280;68218;51.012;-1.648;2023-04-19T02:08:40;101431.59;;;7.59;86.27
52693;BME280;68218;51.012;-1.648;2023-04-19T02:11:07;101444.38;;;7.63;86.41
52693;BME280;68218;51.012;-1.648;2023-04-19T02:13:33;101426.38;;;7.71;86.22
52693;BME280;68218;51.012;-1.648;2023-04-19T02:15:59;101432.16;;;7.67;86.45
52693;BME280;68218;51.012;-1.648;2023-04-19T02:18:26;101428.44;;;7.75;86.32
52693;BME280;68218;51.012;-1.648;2023-04-19T02:20:57;101426.78;;;7.74;86.46
52693;BME280;68218;51.012;-1.648;2023-04-19T02:23:23;101424.94;;;7.75;86.54
52693;BME280;68218;51.012;-1.648;2023-04-19T02:25:48;101424.47;;;7.78;86.55
52693;BME280;68218;51.012;-1.648;2023-04-19T02:28:14;101423.25;;;7.80;86.65
52693;BME280;68218;51.012;-1.648;2023-04-19T02:30:39;101423.03;;;7.82;86.42
52693;BME280;68218;51.012;-1.648;2023-04-19T02:33:05;101426.53;;;7.82;86.57
52693;BME280;68218;51.012;-1.648;2023-04-19T02:35:30;101425.50;;;7.83;86.46
52693;BME280;68218;51.012;-1.648;2023-04-19T02:37:55;101424.66;;;7.83;86.55
52693;BME280;68218;51.012;-1.648;2023-04-19T02:40:21;101420.13;;;7.83;86.58
52693;BME280;68218;51.012;-1.648;2023-04-19T02:42:48;101429.22;;;7.82;86.69
52693;BME280;68218;51.012;-1.648;2023-04-19T02:45:13;101428.81;;;7.79;86.73
52693;BME280;68218;51.012;-1.648;2023-04-19T02:47:38;101426.16;;;7.72;87.02
52693;BME280;68218;51.012;-1.648;2023-04-19T02:50:04;101427.44;;;7.69;87.17
52693;BME280;68218;51.012;-1.648;2023-04-19T02:52:30;101421.44;;;7.67;87.26
52693;BME280;68218;51.012;-1.648;2023-04-19T02:54:55;101419.84;;;7.60;87.61
52693;BME280;68218;51.012;-1.648;2023-04-19T02:57:21;101416.75;;;7.56;87.69
52693;BME280;68218;51.012;-1.648;2023-04-19T02:59:46;101416.16;;;7.54;87.80
52693;BME280;68218;51.012;-1.648;2023-04-19T03:02:11;101424.22;;;7.47;88.04
52693;BME280;68218;51.012;-1.648;2023-04-19T03:04:37;101419.44;;;7.56;87.97
52693;BME280;68218;51.012;-1.648;2023-04-19T03:07:02;101425.63;;;7.50;87.91
52693;BME280;68218;51.012;-1.648;2023-04-19T03:09:27;101412.00;;;7.52;88.04
52693;BME280;68218;51.012;-1.648;2023-04-19T03:11:53;101411.41;;;7.49;88.15
52693;BME280;68218;51.012;-1.648;2023-04-19T03:14:18;101412.00;;;7.52;88.17
52693;BME280;68218;51.012;-1.648;2023-04-19T03:16:44;101396.50;;;7.54;87.98
52693;BME280;68218;51.012;-1.648;2023-04-19T03:19:09;101409.94;;;7.54;88.11
52693;BME280;68218;51.012;-1.648;2023-04-19T03:21:34;101403.56;;;7.48;88.13
52693;BME280;68218;51.012;-1.648;2023-04-19T03:24:00;101395.72;;;7.46;88.35
52693;BME280;68218;51.012;-1.648;2023-04-19T03:26:26;101396.53;;;7.47;88.25
52693;BME280;68218;51.012;-1.648;2023-04-19T03:28:51;101396.81;;;7.39;88.31
52693;BME280;68218;51.012;-1.648;2023-04-19T03:31:17;101398.63;;;7.38;88.37
52693;BME280;68218;51.012;-1.648;2023-04-19T03:33:42;101406.47;;;7.40;88.54
52693;BME280;68218;51.012;-1.648;2023-04-19T03:36:08;101405.88;;;7.38;88.51
52693;BME280;68218;51.012;-1.648;2023-04-19T03:38:33;101409.59;;;7.37;88.55
52693;BME280;68218;51.012;-1.648;2023-04-19T03:40:58;101406.09;;;7.36;88.64
52693;BME280;68218;51.012;-1.648;2023-04-19T03:43:24;101404.84;;;7.39;88.55
52693;BME280;68218;51.012;-1.648;2023-04-19T03:45:49;101405.03;;;7.44;88.22
52693;BME280;68218;51.012;-1.648;2023-04-19T03:48:15;101398.47;;;7.26;88.71
52693;BME280;68218;51.012;-1.648;2023-04-19T03:50:40;101395.78;;;7.26;88.96
52693;BME280;68218;51.012;-1.648;2023-04-19T03:53:06;101393.34;;;7.25;88.91
52693;BME280;68218;51.012;-1.648;2023-04-19T03:55:31;101396.22;;;7.23;89.01
52693;BME280;68218;51.012;-1.648;2023-04-19T03:57:56;101384.25;;;7.26;88.90
52693;BME280;68218;51.012;-1.648;2023-04-19T04:00:22;101393.16;;;7.20;88.96
52693;BME280;68218;51.012;-1.648;2023-04-19T04:02:47;101390.22;;;7.21;89.16
52693;BME280;68218;51.012;-1.648;2023-04-19T04:05:14;101389.41;;;7.21;89.15
52693;BME280;68218;51.012;-1.648;2023-04-19T04:07:39;101386.53;;;7.22;88.86
52693;BME280;68218;51.012;-1.648;2023-04-19T04:10:04;101381.19;;;7.16;89.19
52693;BME280;68218;51.012;-1.648;2023-04-19T04:12:30;101377.69;;;7.15;89.45
52693;BME280;68218;51.012;-1.648;2023-04-19T04:14:55;101389.84;;;7.18;89.29
52693;BME280;68218;51.012;-1.648;2023-04-19T04:17:21;101385.53;;;7.17;89.32
52693;BME280;68218;51.012;-1.648;2023-04-19T04:19:48;101383.47;;;7.12;89.42
52693;BME280;68218;51.012;-1.648;2023-04-19T04:22:14;101396.84;;;7.19;89.46
52693;BME280;68218;51.012;-1.648;2023-04-19T04:24:39;101403.03;;;7.19;89.30
52693;BME280;68218;51.012;-1.648;2023-04-19T04:27:09;101398.28;;;7.21;89.08
52693;BME280;68218;51.012;-1.648;2023-04-19T04:29:37;101406.53;;;7.26;88.91
52693;BME280;68218;51.012;-1.648;2023-04-19T04:32:05;101396.03;;;7.25;88.88
52693;BME280;68218;51.012;-1.648;2023-04-19T04:34:32;101398.47;;;7.26;88.95
52693;BME280;68218;51.012;-1.648;2023-04-19T04:36:57;101394.38;;;7.24;89.08
52693;BME280;68218;51.012;-1.648;2023-04-19T04:39:23;101385.72;;;7.15;89.39
52693;BME280;68218;51.012;-1.648;2023-04-19T04:41:48;101380.75;;;7.19;89.46
52693;BME280;68218;51.012;-1.648;2023-04-19T04:44:16;101381.16;;;7.22;89.30
52693;BME280;68218;51.012;-1.648;2023-04-19T04:46:41;101383.44;;;7.25;89.22
52693;BME280;68218;51.012;-1.648;2023-04-19T04:49:06;101374.97;;;7.28;88.99
52693;BME280;68218;51.012;-1.648;2023-04-19T04:51:32;101372.91;;;7.24;89.17
52693;BME280;68218;51.012;-1.648;2023-04-19T04:53:58;101378.09;;;7.19;89.46
52693;BME280;68218;51.012;-1.648;2023-04-19T04:56:23;101370.44;;;7.22;89.42
52693;BME280;68218;51.012;-1.648;2023-04-19T04:58:50;101374.13;;;7.21;89.50
52693;BME280;68218;51.012;-1.648;2023-04-19T05:01:15;101379.09;;;7.24;89.23
52693;BME280;68218;51.012;-1.648;2023-04-19T05:03:43;101364.66;;;7.19;89.75
52693;BME280;68218;51.012;-1.648;2023-04-19T05:06:09;101386.31;;;7.24;89.49
52693;BME280;68218;51.012;-1.648;2023-04-19T05:08:34;101388.38;;;7.28;89.31
52693;BME280;68218;51.012;-1.648;2023-04-19T05:11:00;101382.81;;;7.30;89.27
52693;BME280;68218;51.012;-1.648;2023-04-19T05:13:25;101385.47;;;7.30;89.38
52693;BME280;68218;51.012;-1.648;2023-04-19T05:15:50;101383.41;;;7.32;89.28
52693;BME280;68218;51.012;-1.648;2023-04-19T05:18:16;101388.34;;;7.35;89.44
52693;BME280;68218;51.012;-1.648;2023-04-19T05:20:41;101390.97;;;7.42;89.10
52693;BME280;68218;51.012;-1.648;2023-04-19T05:23:07;101390.97;;;7.42;89.24
52693;BME280;68218;51.012;-1.648;2023-04-19T05:25:35;101387.25;;;7.49;88.95
52693;BME280;68218;51.012;-1.648;2023-04-19T05:28:00;101386.47;;;7.36;89.25
52693;BME280;68218;51.012;-1.648;2023-04-19T05:30:27;101388.94;;;7.44;89.16
52693;BME280;68218;51.012;-1.648;2023-04-19T05:32:53;101390.56;;;7.45;89.30
52693;BME280;68218;51.012;-1.648;2023-04-19T05:35:19;101387.88;;;7.45;89.28
52693;BME280;68218;51.012;-1.648;2023-04-19T05:37:44;101396.13;;;7.50;88.79
52693;BME280;68218;51.012;-1.648;2023-04-19T05:40:10;101393.63;;;7.55;88.90
52693;BME280;68218;51.012;-1.648;2023-04-19T05:42:36;101391.34;;;7.52;89.00
52693;BME280;68218;51.012;-1.648;2023-04-19T05:45:01;101395.09;;;7.51;89.23
52693;BME280;68218;51.012;-1.648;2023-04-19T05:47:26;101400.66;;;7.56;89.04
52693;BME280;68218;51.012;-1.648;2023-04-19T05:49:52;101408.88;;;7.61;88.88
52693;BME280;68218;51.012;-1.648;2023-04-19T05:52:17;101402.06;;;7.59;88.91
52693;BME280;68218;51.012;-1.648;2023-04-19T05:54:42;101392.16;;;7.59;89.23
52693;BME280;68218;51.012;-1.648;2023-04-19T05:57:09;101396.69;;;7.59;89.02
52693;BME280;68218;51.012;-1.648;2023-04-19T05:59:34;101400.41;;;7.64;89.08
52693;BME280;68218;51.012;-1.648;2023-04-19T06:01:59;101394.41;;;7.62;88.95
52693;BME280;68218;51.012;-1.648;2023-04-19T06:04:25;101396.25;;;7.68;88.93
52693;BME280;68218;51.012;-1.648;2023-04-19T06:06:50;101393.53;;;7.75;88.77
52693;BME280;68218;51.012;-1.648;2023-04-19T06:09:16;101393.72;;;7.74;88.61
52693;BME280;68218;51.012;-1.648;2023-04-19T06:11:43;101403.06;;;7.71;88.76
52693;BME280;68218;51.012;-1.648;2023-04-19T06:14:08;101404.22;;;7.82;88.71
52693;BME280;68218;51.012;-1.648;2023-04-19T06:16:34;101407.34;;;7.79;88.83
52693;BME280;68218;51.012;-1.648;2023-04-19T06:18:59;101406.91;;;7.82;88.56
52693;BME280;68218;51.012;-1.648;2023-04-19T06:21:25;101396.78;;;7.84;88.55
52693;BME280;68218;51.012;-1.648;2023-04-19T06:23:50;101402.53;;;7.87;88.38
52693;BME280;68218;51.012;-1.648;2023-04-19T06:26:16;101413.88;;;7.90;88.42
52693;BME280;68218;51.012;-1.648;2023-04-19T06:28:41;101415.59;;;7.77;88.86
52693;BME280;68218;51.012;-1.648;2023-04-19T06:31:06;101426.28;;;7.91;88.30
52693;BME280;68218;51.012;-1.648;2023-04-19T06:33:32;101424.41;;;7.91;88.49
52693;BME280;68218;51.012;-1.648;2023-04-19T06:35:57;101426.88;;;7.93;88.36
52693;BME280;68218;51.012;-1.648;2023-04-19T06:38:23;101410.56;;;7.94;88.15
52693;BME280;68218;51.012;-1.648;2023-04-19T06:40:48;101415.94;;;7.94;87.80
52693;BME280;68218;51.012;-1.648;2023-04-19T06:43:13;101416.97;;;7.93;88.04
52693;BME280;68218;51.012;-1.648;2023-04-19T06:45:39;101413.84;;;7.96;87.97
52693;BME280;68218;51.012;-1.648;2023-04-19T06:48:04;101403.72;;;7.98;87.93
52693;BME280;68218;51.012;-1.648;2023-04-19T06:50:30;101416.09;;;7.99;87.80
52693;BME280;68218;51.012;-1.648;2023-04-19T06:52:55;101410.13;;;7.97;88.11
52693;BME280;68218;51.012;-1.648;2023-04-19T06:55:21;101418.78;;;7.99;88.09
52693;BME280;68218;51.012;-1.648;2023-04-19T06:57:46;101419.22;;;7.96;88.61
52693;BME280;68218;51.012;-1.648;2023-04-19T07:00:12;101418.44;;;7.89;89.77
52693;BME280;68218;51.012;-1.648;2023-04-19T07:02:38;101418.84;;;7.93;89.51
52693;BME280;68218;51.012;-1.648;2023-04-19T07:05:03;101417.63;;;7.88;89.59
52693;BME280;68218;51.012;-1.648;2023-04-19T07:07:29;101419.81;;;7.98;89.25
52693;BME280;68218;51.012;-1.648;2023-04-19T07:09:54;101420.34;;;8.14;89.30
52693;BME280;68218;51.012;-1.648;2023-04-19T07:12:20;101414.25;;;8.32;88.70
52693;BME280;68218;51.012;-1.648;2023-04-19T07:14:45;101420.69;;;8.24;88.54
52693;BME280;68218;51.012;-1.648;2023-04-19T07:17:10;101417.97;;;8.31;88.15
52693;BME280;68218;51.012;-1.648;2023-04-19T07:19:37;101426.19;;;8.42;87.89
52693;BME280;68218;51.012;-1.648;2023-04-19T07:22:03;101434.56;;;8.53;87.12
52693;BME280;68218;51.012;-1.648;2023-04-19T07:24:30;101427.41;;;8.47;87.20
52693;BME280;68218;51.012;-1.648;2023-04-19T07:26:56;101428.50;;;8.64;86.49
52693;BME280;68218;51.012;-1.648;2023-04-19T07:29:21;101430.75;;;8.67;86.69
52693;BME280;68218;51.012;-1.648;2023-04-19T07:31:47;101432.88;;;8.84;86.24
52693;BME280;68218;51.012;-1.648;2023-04-19T07:34:12;101430.78;;;8.86;85.90
52693;BME280;68218;51.012;-1.648;2023-04-19T07:36:37;101430.59;;;8.80;85.61
52693;BME280;68218;51.012;-1.648;2023-04-19T07:39:03;101428.34;;;9.03;85.10
52693;BME280;68218;51.012;-1.648;2023-04-19T07:41:30;101437.47;;;9.02;84.96
52693;BME280;68218;51.012;-1.648;2023-04-19T07:43:56;101433.78;;;8.96;84.99
52693;BME280;68218;51.012;-1.648;2023-04-19T07:46:21;101444.19;;;9.11;84.38
52693;BME280;68218;51.012;-1.648;2023-04-19T07:48:46;101445.00;;;9.11;84.82
52693;BME280;68218;51.012;-1.648;2023-04-19T07:51:15;101439.28;;;9.26;83.44
52693;BME280;68218;51.012;-1.648;2023-04-19T07:53:42;101407.34;;;9.11;84.02
52693;BME280;68218;51.012;-1.648;2023-04-19T07:56:09;101429.47;;;9.32;83.15
52693;BME280;68218;51.012;-1.648;2023-04-19T07:58:35;101426.78;;;9.32;83.64
52693;BME280;68218;51.012;-1.648;2023-04-19T08:01:02;101433.97;;;9.56;83.03
52693;BME280;68218;51.012;-1.648;2023-04-19T08:03:28;101422.34;;;9.56;82.23
52693;BME280;68218;51.012;-1.648;2023-04-19T08:05:54;101432.28;;;9.74;81.85
52693;BME280;68218;51.012;-1.648;2023-04-19T08:08:19;101431.09;;;9.70;82.09
52693;BME280;68218;51.012;-1.648;2023-04-19T08:10:45;101426.03;;;9.62;81.85
52693;BME280;68218;51.012;-1.648;2023-04-19T08:13:10;101415.41;;;9.67;81.41
52693;BME280;68218;51.012;-1.648;2023-04-19T08:15:36;101421.75;;;10.03;80.91
52693;BME280;68218;51.012;-1.648;2023-04-19T08:18:01;101420.69;;;10.04;81.02
52693;BME280;68218;51.012;-1.648;2023-04-19T08:20:29;101420.16;;;10.25;80.29
52693;BME280;68218;51.012;-1.648;2023-04-19T08:22:54;101419.69;;;10.28;79.77
52693;BME280;68218;51.012;-1.648;2023-04-19T08:25:20;101416.16;;;10.28;79.49
52693;BME280;68218;51.012;-1.648;2023-04-19T08:27:50;101416.41;;;10.26;79.54
52693;BME280;68218;51.012;-1.648;2023-04-19T08:30:16;101422.72;;;10.20;79.20
52693;BME280;68218;51.012;-1.648;2023-04-19T08:32:41;101434.06;;;10.41;78.48
52693;BME280;68218;51.012;-1.648;2023-04-19T08:35:06;101435.88;;;10.28;78.46
52693;BME280;68218;51.012;-1.648;2023-04-19T08:37:32;101421.31;;;10.60;78.21
52693;BME280;68218;51.012;-1.648;2023-04-19T08:39:57;101436.78;;;10.53;78.67
52693;BME280;68218;51.012;-1.648;2023-04-19T08:42:23;101425.16;;;10.52;78.41
52693;BME280;68218;51.012;-1.648;2023-04-19T08:44:49;101418.84;;;10.82;77.48
52693;BME280;68218;51.012;-1.648;2023-04-19T08:47:15;101421.53;;;10.82;77.79
52693;BME280;68218;51.012;-1.648;2023-04-19T08:49:41;101425.88;;;10.83;77.65
52693;BME280;68218;51.012;-1.648;2023-04-19T08:52:11;101425.16;;;10.99;76.69
52693;BME280;68218;51.012;-1.648;2023-04-19T08:54:37;101436.75;;;11.23;74.84
52693;BME280;68218;51.012;-1.648;2023-04-19T08:57:04;101424.13;;;11.12;76.32
52693;BME280;68218;51.012;-1.648;2023-04-19T08:59:29;101432.56;;;11.28;75.24
52693;BME280;68218;51.012;-1.648;2023-04-19T09:01:55;101442.03;;;11.30;75.20
52693;BME280;68218;51.012;-1.648;2023-04-19T09:04:24;101429.41;;;11.07;76.48
52693;BME280;68218;51.012;-1.648;2023-04-19T09:06:50;101437.25;;;11.09;75.32
52693;BME280;68218;51.012;-1.648;2023-04-19T09:09:27;101441.13;;;11.13;74.61
52693;BME280;68218;51.012;-1.648;2023-04-19T09:11:52;101434.31;;;10.98;76.28
52693;BME280;68218;51.012;-1.648;2023-04-19T09:14:19;101442.09;;;11.59;75.13
52693;BME280;68218;51.012;-1.648;2023-04-19T09:16:45;101434.53;;;11.73;74.31
52693;BME280;68218;51.012;-1.648;2023-04-19T09:19:11;101440.59;;;11.92;72.98
52693;BME280;68218;51.012;-1.648;2023-04-19T09:21:37;101426.34;;;12.25;72.15
52693;BME280;68218;51.012;-1.648;2023-04-19T09:24:04;101430.50;;;13.01;70.84
52693;BME280;68218;51.012;-1.648;2023-04-19T09:26:30;101423.50;;;13.44;68.61
52693;BME280;68218;51.012;-1.648;2023-04-19T09:31:27;101412.53;;;12.95;69.67
52693;BME280;68218;51.012;-1.648;2023-04-19T09:33:53;101415.56;;;13.20;69.10
52693;BME280;68218;51.012;-1.648;2023-04-19T09:36:30;101413.81;;;13.31;68.84
52693;BME280;68218;51.012;-1.648;2023-04-19T09:38:57;101422.84;;;12.98;67.78
52693;BME280;68218;51.012;-1.648;2023-04-19T09:41:23;101421.78;;;12.99;68.16
52693;BME280;68218;51.012;-1.648;2023-04-19T09:43:49;101421.25;;;13.19;67.80
52693;BME280;68218;51.012;-1.648;2023-04-19T09:46:35;101413.13;;;14.45;64.72
52693;BME280;68218;51.012;-1.648;2023-04-19T09:51:47;101407.19;;;14.90;64.16
52693;BME280;68218;51.012;-1.648;2023-04-19T09:54:14;101407.56;;;14.61;63.61
52693;BME280;68218;51.012;-1.648;2023-04-19T09:56:40;101417.88;;;13.73;65.48
52693;BME280;68218;51.012;-1.648;2023-04-19T09:59:07;101398.63;;;13.30;65.48
52693;BME280;68218;51.012;-1.648;2023-04-19T10:01:42;101413.00;;;13.75;63.66
52693;BME280;68218;51.012;-1.648;2023-04-19T10:04:09;101405.66;;;13.48;66.16
52693;BME280;68218;51.012;-1.648;2023-04-19T10:06:37;101395.19;;;13.84;65.01
52693;BME280;68218;51.012;-1.648;2023-04-19T10:09:04;101395.75;;;14.13;64.63
52693;BME280;68218;51.012;-1.648;2023-04-19T10:11:34;101396.97;;;14.28;63.88
52693;BME280;68218;51.012;-1.648;2023-04-19T10:14:07;101385.84;;;15.09;60.44
52693;BME280;68218;51.012;-1.648;2023-04-19T10:16:34;101374.59;;;15.48;58.88
52693;BME280;68218;51.012;-1.648;2023-04-19T10:19:02;101369.66;;;15.40;60.96
52693;BME280;68218;51.012;-1.648;2023-04-19T10:21:28;101368.72;;;15.82;60.09
52693;BME280;68218;51.012;-1.648;2023-04-19T10:23:56;101362.84;;;14.74;61.39
52693;BME280;68218;51.012;-1.648;2023-04-19T10:26:22;101384.34;;;15.39;59.74
52693;BME280;68218;51.012;-1.648;2023-04-19T10:28:48;101378.09;;;14.81;59.50
52693;BME280;68218;51.012;-1.648;2023-04-19T10:31:16;101370.13;;;15.11;60.48
52693;BME280;68218;51.012;-1.648;2023-04-19T10:33:46;101361.47;;;15.35;58.40
52693;BME280;68218;51.012;-1.648;2023-04-19T10:36:13;101375.00;;;16.08;57.45
52693;BME280;68218;51.012;-1.648;2023-04-19T10:38:47;101362.66;;;15.60;57.27
52693;BME280;68218;51.012;-1.648;2023-04-19T10:41:17;101356.09;;;15.50;57.38
52693;BME280;68218;51.012;-1.648;2023-04-19T10:44:07;101356.56;;;15.22;59.05
52693;BME280;68218;51.012;-1.648;2023-04-19T10:49:00;101357.44;;;15.43;59.36
52693;BME280;68218;51.012;-1.648;2023-04-19T10:51:27;101350.00;;;15.12;60.20
52693;BME280;68218;51.012;-1.648;2023-04-19T10:53:55;101359.84;;;15.24;58.56
52693;BME280;68218;51.012;-1.648;2023-04-19T10:59:28;101351.97;;;14.69;58.91
52693;BME280;68218;51.012;-1.648;2023-04-19T11:02:26;101351.69;;;14.71;59.22
52693;BME280;68218;51.012;-1.648;2023-04-19T11:07:17;101348.34;;;15.06;59.36
52693;BME280;68218;51.012;-1.648;2023-04-19T11:09:45;101343.88;;;15.48;57.52
52693;BME280;68218;51.012;-1.648;2023-04-19T11:12:13;101339.34;;;15.84;56.71
52693;BME280;68218;51.012;-1.648;2023-04-19T11:14:41;101347.41;;;15.53;56.76
52693;BME280;68218;51.012;-1.648;2023-04-19T11:17:25;101350.81;;;15.13;58.20
52693;BME280;68218;51.012;-1.648;2023-04-19T11:19:56;101334.88;;;15.32;56.94
52693;BME280;68218;51.012;-1.648;2023-04-19T11:22:32;101341.50;;;15.77;55.94
52693;BME280;68218;51.012;-1.648;2023-04-19T11:27:34;101333.47;;;15.24;55.63
52693;BME280;68218;51.012;-1.648;2023-04-19T11:30:08;101337.31;;;15.39;57.08
52693;BME280;68218;51.012;-1.648;2023-04-19T11:32:34;101320.81;;;16.12;56.16
52693;BME280;68218;51.012;-1.648;2023-04-19T11:35:07;101323.22;;;16.60;54.64
52693;BME280;68218;51.012;-1.648;2023-04-19T11:37:34;101334.97;;;16.04;55.18
52693;BME280;68218;51.012;-1.648;2023-04-19T11:40:00;101330.09;;;15.75;54.02
52693;BME280;68218;51.012;-1.648;2023-04-19T11:42:25;101323.81;;;15.90;53.40
52693;BME280;68218;51.012;-1.648;2023-04-19T11:44:51;101323.28;;;15.88;54.15
52693;BME280;68218;51.012;-1.648;2023-04-19T11:47:17;101327.09;;;16.07;53.89
52693;BME280;68218;51.012;-1.648;2023-04-19T11:49:44;101324.38;;;15.97;52.92
52693;BME280;68218;51.012;-1.648;2023-04-19T11:52:09;101324.94;;;15.94;53.37
52693;BME280;68218;51.012;-1.648;2023-04-19T11:54:35;101325.34;;;16.89;51.48
52693;BME280;68218;51.012;-1.648;2023-04-19T11:57:05;101312.66;;;16.27;52.79
52693;BME280;68218;51.012;-1.648;2023-04-19T11:59:32;101323.66;;;15.18;55.71
52693;BME280;68218;51.012;-1.648;2023-04-19T12:02:05;101321.34;;;15.68;54.87
52693;BME280;68218;51.012;-1.648;2023-04-19T12:04:31;101322.59;;;15.24;54.57
52693;BME280;68218;51.012;-1.648;2023-04-19T12:06:58;101312.84;;;15.44;54.52
52693;BME280;68218;51.012;-1.648;2023-04-19T12:09:26;101321.38;;;15.94;54.33
52693;BME280;68218;51.012;-1.648;2023-04-19T12:11:52;101322.44;;;16.39;53.48
52693;BME280;68218;51.012;-1.648;2023-04-19T12:14:19;101314.00;;;16.35;53.23
52693;BME280;68218;51.012;-1.648;2023-04-19T12:17:08;101320.84;;;15.97;54.61
52693;BME280;68218;51.012;-1.648;2023-04-19T12:19:42;101315.59;;;16.52;52.10
52693;BME280;68218;51.012;-1.648;2023-04-19T12:22:12;101325.19;;;15.98;52.14
52693;BME280;68218;51.012;-1.648;2023-04-19T12:24:38;101314.31;;;15.87;54.16
52693;BME280;68218;51.012;-1.648;2023-04-19T12:27:05;101317.22;;;15.55;55.32
52693;BME280;68218;51.012;-1.648;2023-04-19T12:29:31;101312.88;;;16.52;53.28
52693;BME280;68218;51.012;-1.648;2023-04-19T12:31:58;101309.94;;;16.12;52.98
52693;BME280;68218;51.012;-1.648;2023-04-19T12:34:24;101309.81;;;16.79;51.80
52693;BME280;68218;51.012;-1.648;2023-04-19T12:36:49;101306.44;;;17.08;49.36
52693;BME280;68218;51.012;-1.648;2023-04-19T12:39:14;101314.41;;;16.99;50.18
52693;BME280;68218;51.012;-1.648;2023-04-19T12:41:40;101302.72;;;17.83;48.14
52693;BME280;68218;51.012;-1.648;2023-04-19T12:44:05;101306.47;;;17.02;49.77
52693;BME280;68218;51.012;-1.648;2023-04-19T12:46:31;101309.91;;;16.43;51.69
52693;BME280;68218;51.012;-1.648;2023-04-19T12:48:56;101306.25;;;16.83;52.46
52693;BME280;68218;51.012;-1.648;2023-04-19T12:51:21;101310.69;;;16.59;51.76
52693;BME280;68218;51.012;-1.648;2023-04-19T12:53:48;101301.97;;;16.57;52.24
52693;BME280;68218;51.012;-1.648;2023-04-19T12:56:14;101297.63;;;17.26;50.53
52693;BME280;68218;51.012;-1.648;2023-04-19T12:58:40;101297.22;;;17.53;48.80